createdAt,value
2019-03-16T00:00:58.290Z,61.82
2019-03-16T00:01:58.315Z,61.82
2019-03-16T00:02:58.269Z,62.44
2019-03-16T00:03:58.251Z,62.75
2019-03-16T00:04:58.241Z,62.85
2019-03-16T00:05:58.230Z,62.24
2019-03-16T00:06:58.220Z,61.93
2019-03-16T00:07:58.246Z,62.24
2019-03-16T00:08:58.197Z,61.93
2019-03-16T00:09:58.187Z,61.61
2019-03-16T00:10:58.178Z,61.61
2019-03-16T00:11:58.400Z,61.93
2019-03-16T00:12:58.154Z,61.93
2019-03-16T00:13:58.179Z,61.72
2019-03-16T00:14:58.129Z,61.75
2019-03-16T00:15:58.118Z,62.26
2019-03-16T00:16:58.106Z,62.47
2019-03-16T00:17:58.100Z,62.47
2019-03-16T00:18:58.085Z,62.37
2019-03-16T00:19:58.101Z,62.26
2019-03-16T00:20:58.064Z,62.16
2019-03-16T00:21:58.051Z,62.26
2019-03-16T00:22:58.040Z,62.68
2019-03-16T00:23:58.029Z,62.47
2019-03-16T00:24:58.055Z,63.19
2019-03-16T00:25:58.008Z,62.88
2019-03-16T00:26:57.996Z,62.78
2019-03-16T00:27:57.987Z,62.78
2019-03-16T00:28:57.974Z,63.53
2019-03-16T00:29:57.963Z,63.29
2019-03-16T00:30:57.992Z,63.92
2019-03-16T00:31:57.940Z,63.53
2019-03-16T00:32:57.929Z,63.64
2019-03-16T00:33:57.921Z,63.81
2019-03-16T00:34:57.906Z,63.53
2019-03-16T00:35:57.896Z,63.43
2019-03-16T00:36:57.911Z,63.43
2019-03-16T00:37:57.890Z,63.60
2019-03-16T00:38:57.863Z,63.64
2019-03-16T00:39:57.852Z,63.95
2019-03-16T00:40:57.841Z,63.64
2019-03-16T00:41:57.867Z,63.43
2019-03-16T00:42:57.821Z,63.74
2019-03-16T00:43:57.808Z,64.25
2019-03-16T00:44:57.797Z,63.53
2019-03-16T00:45:57.791Z,63.64
2019-03-16T00:46:57.774Z,63.43
2019-03-16T00:47:57.801Z,63.74
2019-03-16T00:48:57.753Z,63.95
2019-03-16T00:49:57.739Z,64.04
2019-03-16T00:50:57.730Z,64.15
2019-03-16T00:51:57.717Z,64.04
2019-03-16T00:52:57.773Z,63.95
2019-03-16T00:53:57.721Z,63.95
2019-03-16T00:54:57.685Z,63.95
2019-03-16T00:55:57.676Z,63.95
2019-03-16T00:56:57.665Z,64.04
2019-03-16T00:57:57.732Z,64.36
2019-03-16T00:58:57.679Z,63.74
2019-03-16T00:59:57.629Z,65.08
2019-03-16T01:00:57.623Z,65.31
2019-03-16T01:01:57.610Z,65.31
2019-03-16T01:02:57.598Z,65.00
2019-03-16T01:03:57.587Z,65.80
2019-03-16T01:04:57.613Z,65.18
2019-03-16T01:05:57.565Z,65.59
2019-03-16T01:06:57.553Z,65.59
2019-03-16T01:07:57.542Z,65.49
2019-03-16T01:08:57.530Z,65.28
2019-03-16T01:09:57.528Z,65.18
2019-03-16T01:10:57.544Z,65.62
2019-03-16T01:11:57.498Z,66.14
2019-03-16T01:12:57.489Z,65.70
2019-03-16T01:13:57.481Z,65.70
2019-03-16T01:14:57.463Z,66.45
2019-03-16T01:15:57.454Z,66.21
2019-03-16T01:16:57.467Z,66.21
2019-03-16T01:17:57.431Z,66.31
2019-03-16T01:18:57.421Z,67.14
2019-03-16T01:19:57.419Z,66.83
2019-03-16T01:20:57.400Z,66.94
2019-03-16T01:21:57.425Z,66.94
2019-03-16T01:22:57.377Z,66.76
2019-03-16T01:23:57.366Z,67.14
2019-03-16T01:24:57.356Z,66.83
2019-03-16T01:25:57.343Z,66.73
2019-03-16T01:26:57.332Z,66.73
2019-03-16T01:27:57.358Z,67.55
2019-03-16T01:28:57.310Z,67.14
2019-03-16T01:29:57.298Z,67.45
2019-03-16T01:30:57.289Z,67.35
2019-03-16T01:31:57.279Z,66.83
2019-03-16T01:32:57.266Z,67.45
2019-03-16T01:33:57.280Z,67.55
2019-03-16T01:34:57.244Z,67.48
2019-03-16T01:35:57.237Z,67.55
2019-03-16T01:36:57.220Z,67.03
2019-03-16T01:37:57.209Z,67.03
2019-03-16T01:38:57.236Z,67.38
2019-03-16T01:39:57.189Z,67.24
2019-03-16T01:40:57.179Z,67.45
2019-03-16T01:41:57.166Z,67.55
2019-03-16T01:42:57.156Z,67.76
2019-03-16T01:43:57.146Z,67.66
2019-03-16T01:44:57.172Z,67.86
2019-03-16T01:45:57.124Z,68.00
2019-03-16T01:46:57.110Z,67.66
2019-03-16T01:47:57.106Z,67.66
2019-03-16T01:48:57.090Z,67.55
2019-03-16T01:49:57.077Z,68.17
2019-03-16T01:50:57.103Z,68.17
2019-03-16T01:51:57.142Z,68.30
2019-03-16T01:52:57.045Z,68.27
2019-03-16T01:53:57.035Z,68.62
2019-03-16T01:54:57.022Z,68.07
2019-03-16T01:55:57.012Z,68.27
2019-03-16T01:56:57.038Z,68.69
2019-03-16T01:57:56.989Z,68.17
2019-03-16T01:58:56.979Z,68.59
2019-03-16T01:59:56.969Z,68.48
2019-03-16T02:00:56.958Z,69.13
2019-03-16T02:01:56.944Z,68.51
2019-03-16T02:02:56.973Z,68.79
2019-03-16T02:03:56.924Z,68.93
2019-03-16T02:04:56.913Z,69.03
2019-03-16T02:05:56.900Z,68.82
2019-03-16T02:06:56.889Z,68.93
2019-03-16T02:07:56.879Z,68.30
2019-03-16T02:08:56.904Z,68.51
2019-03-16T02:09:56.855Z,68.59
2019-03-16T02:10:56.844Z,68.51
2019-03-16T02:11:56.838Z,68.51
2019-03-16T02:12:56.825Z,68.30
2019-03-16T02:13:56.812Z,68.93
2019-03-16T02:14:56.837Z,69.24
2019-03-16T02:16:09.980Z,69.00
2019-03-16T02:16:57.779Z,68.62
2019-03-16T02:17:56.771Z,69.03
2019-03-16T02:18:56.760Z,69.24
2019-03-16T02:19:56.748Z,69.03
2019-03-16T02:20:56.775Z,68.00
2019-03-16T02:21:56.725Z,68.10
2019-03-16T02:22:56.713Z,68.62
2019-03-16T02:23:56.704Z,68.21
2019-03-16T02:24:56.694Z,68.41
2019-03-16T02:25:56.682Z,68.00
2019-03-16T02:26:56.709Z,68.30
2019-03-16T02:27:56.662Z,68.21
2019-03-16T02:28:56.653Z,67.90
2019-03-16T02:29:56.639Z,68.21
2019-03-16T02:30:56.635Z,68.21
2019-03-16T02:31:56.620Z,67.90
2019-03-16T02:33:11.794Z,68.30
2019-03-16T02:33:57.597Z,67.79
2019-03-16T02:34:56.599Z,67.90
2019-03-16T02:35:56.713Z,67.79
2019-03-16T02:36:56.573Z,67.58
2019-03-16T02:37:56.720Z,67.79
2019-03-16T02:38:56.581Z,67.69
2019-03-16T02:39:56.531Z,67.69
2019-03-16T02:40:56.521Z,67.69
2019-03-16T02:41:56.512Z,67.27
2019-03-16T02:42:56.501Z,67.48
2019-03-16T02:43:56.489Z,67.48
2019-03-16T02:44:56.513Z,67.58
2019-03-16T02:45:56.466Z,67.17
2019-03-16T02:46:56.462Z,67.48
2019-03-16T02:47:56.447Z,67.79
2019-03-16T02:48:56.440Z,67.69
2019-03-16T02:49:56.424Z,67.58
2019-03-16T02:50:56.460Z,67.69
2019-03-16T02:51:56.405Z,67.79
2019-03-16T02:52:56.398Z,68.00
2019-03-16T02:53:56.383Z,68.21
2019-03-16T02:54:56.378Z,68.21
2019-03-16T02:55:56.361Z,68.10
2019-03-16T02:56:56.387Z,68.62
2019-03-16T02:57:56.353Z,68.72
2019-03-16T02:58:56.328Z,69.24
2019-03-16T02:59:56.325Z,68.82
2019-03-16T03:00:56.324Z,68.72
2019-03-16T03:01:56.337Z,68.85
2019-03-16T03:02:56.326Z,68.82
2019-03-16T03:03:56.278Z,68.82
2019-03-16T03:04:56.267Z,68.82
2019-03-16T03:05:56.254Z,68.82
2019-03-16T03:06:56.242Z,68.82
2019-03-16T03:07:56.234Z,68.82
2019-03-16T03:08:56.259Z,68.72
2019-03-16T03:09:56.212Z,68.51
2019-03-16T03:10:56.199Z,69.03
2019-03-16T03:11:56.195Z,69.03
2019-03-16T03:12:56.177Z,69.13
2019-03-16T03:13:56.169Z,69.03
2019-03-16T03:14:56.197Z,69.24
2019-03-16T03:15:56.148Z,69.34
2019-03-16T03:16:56.143Z,69.65
2019-03-16T03:17:56.132Z,69.75
2019-03-16T03:18:56.115Z,69.44
2019-03-16T03:19:56.109Z,69.48
2019-03-16T03:20:56.130Z,69.65
2019-03-16T03:21:56.081Z,69.48
2019-03-16T03:22:56.069Z,70.09
2019-03-16T03:23:56.064Z,69.54
2019-03-16T03:24:56.049Z,69.44
2019-03-16T03:25:56.035Z,69.85
2019-03-16T03:26:56.062Z,69.58
2019-03-16T03:27:56.015Z,69.99
2019-03-16T03:28:56.006Z,69.96
2019-03-16T03:29:57.579Z,69.85
2019-03-16T03:30:56.001Z,69.65
2019-03-16T03:31:55.974Z,69.78
2019-03-16T03:32:56.012Z,69.54
2019-03-16T03:34:01.607Z,70.06
2019-03-16T03:34:56.943Z,69.85
2019-03-16T03:35:55.929Z,69.75
2019-03-16T03:36:55.918Z,69.44
2019-03-16T03:37:55.914Z,69.44
2019-03-16T03:38:55.933Z,69.96
2019-03-16T03:39:55.893Z,69.89
2019-03-16T03:40:55.874Z,69.89
2019-03-16T03:41:55.865Z,70.20
2019-03-16T03:42:55.905Z,70.30
2019-03-16T03:43:55.844Z,70.40
2019-03-16T03:44:55.948Z,70.30
2019-03-16T03:45:55.827Z,70.17
2019-03-16T03:46:55.814Z,70.68
2019-03-16T03:47:55.809Z,70.61
2019-03-16T03:48:55.792Z,70.51
2019-03-16T03:49:55.779Z,70.20
2019-03-16T03:50:55.804Z,70.30
2019-03-16T03:51:55.757Z,70.40
2019-03-16T03:52:55.747Z,70.61
2019-03-16T03:53:55.735Z,71.02
2019-03-16T03:54:55.727Z,70.92
2019-03-16T03:55:55.715Z,71.64
2019-03-16T03:56:55.754Z,70.92
2019-03-16T03:57:55.695Z,71.12
2019-03-16T03:58:55.683Z,71.23
2019-03-16T03:59:55.672Z,71.12
2019-03-16T04:00:55.675Z,71.64
2019-03-16T04:01:55.651Z,71.12
2019-03-16T04:02:55.680Z,71.23
2019-03-16T04:04:13.717Z,71.95
2019-03-16T04:04:56.622Z,71.75
2019-03-16T04:05:55.606Z,72.06
2019-03-16T04:06:55.596Z,71.95
2019-03-16T04:07:55.593Z,71.75
2019-03-16T04:08:55.624Z,71.64
2019-03-16T04:09:55.565Z,71.95
2019-03-16T04:10:55.556Z,71.64
2019-03-16T04:12:02.588Z,71.44
2019-03-16T04:12:55.537Z,71.75
2019-03-16T04:13:55.521Z,71.85
2019-03-16T04:14:55.548Z,71.75
2019-03-16T04:15:55.501Z,72.06
2019-03-16T04:16:55.491Z,71.95
2019-03-16T04:17:55.481Z,71.75
2019-03-16T04:18:55.469Z,72.06
2019-03-16T04:19:55.462Z,72.57
2019-03-16T04:20:55.477Z,72.09
2019-03-16T04:21:55.439Z,72.47
2019-03-16T04:22:55.426Z,72.50
2019-03-16T04:23:55.417Z,72.57
2019-03-16T04:24:55.416Z,72.61
2019-03-16T04:25:55.435Z,72.81
2019-03-16T04:26:55.383Z,71.78
2019-03-16T04:27:55.385Z,72.88
2019-03-16T04:28:55.363Z,72.81
2019-03-16T04:29:55.353Z,72.91
2019-03-16T04:30:55.340Z,71.67
2019-03-16T04:31:55.355Z,71.67
2019-03-16T04:32:55.319Z,72.81
2019-03-16T04:33:55.320Z,72.61
2019-03-16T04:34:55.298Z,72.61
2019-03-16T04:35:55.293Z,72.81
2019-03-16T04:36:55.317Z,72.61
2019-03-16T04:37:55.267Z,71.54
2019-03-16T04:38:55.256Z,72.81
2019-03-16T04:39:55.247Z,72.61
2019-03-16T04:40:55.238Z,72.91
2019-03-16T04:41:55.225Z,72.91
2019-03-16T04:42:55.236Z,73.12
2019-03-16T04:43:55.202Z,73.02
2019-03-16T04:44:55.190Z,73.12
2019-03-16T04:45:55.181Z,73.33
2019-03-16T04:46:55.170Z,73.22
2019-03-16T04:47:55.198Z,73.54
2019-03-16T04:48:55.148Z,73.22
2019-03-16T04:49:55.141Z,73.33
2019-03-16T04:50:55.130Z,73.22
2019-03-16T04:51:55.118Z,73.22
2019-03-16T04:52:55.107Z,73.22
2019-03-16T04:53:55.120Z,73.12
2019-03-16T04:54:55.173Z,73.22
2019-03-16T04:55:55.078Z,73.33
2019-03-16T04:56:55.063Z,73.43
2019-03-16T04:57:55.051Z,73.22
2019-03-16T04:58:55.114Z,73.33
2019-03-16T04:59:55.052Z,72.81
2019-03-16T05:00:55.021Z,73.02
2019-03-16T05:01:55.014Z,72.81
2019-03-16T05:02:54.998Z,72.81
2019-03-16T05:03:54.986Z,72.81
2019-03-16T05:04:55.000Z,73.12
2019-03-16T05:05:54.967Z,72.81
2019-03-16T05:06:54.956Z,72.91
2019-03-16T05:07:54.943Z,72.81
2019-03-16T05:08:54.933Z,73.43
2019-03-16T05:09:54.957Z,73.64
2019-03-16T05:10:54.911Z,73.54
2019-03-16T05:11:54.900Z,73.54
2019-03-16T05:12:54.925Z,73.43
2019-03-16T05:13:54.882Z,73.54
2019-03-16T05:14:54.869Z,73.64
2019-03-16T05:15:54.883Z,73.54
2019-03-16T05:16:54.848Z,73.85
2019-03-16T05:17:54.836Z,73.54
2019-03-16T05:18:54.824Z,73.95
2019-03-16T05:19:54.814Z,73.64
2019-03-16T05:20:54.845Z,73.85
2019-03-16T05:21:54.792Z,73.33
2019-03-16T05:22:54.780Z,73.54
2019-03-16T05:23:54.769Z,73.64
2019-03-16T05:24:54.761Z,73.74
2019-03-16T05:25:54.753Z,73.64
2019-03-16T05:26:54.762Z,73.85
2019-03-16T05:27:54.727Z,73.85
2019-03-16T05:28:54.715Z,74.15
2019-03-16T05:29:54.705Z,74.15
2019-03-16T05:30:54.697Z,74.36
2019-03-16T05:31:54.721Z,74.15
2019-03-16T05:32:54.672Z,74.26
2019-03-16T05:33:54.665Z,74.26
2019-03-16T05:34:56.708Z,74.36
2019-03-16T05:35:54.644Z,73.85
2019-03-16T05:36:56.030Z,74.05
2019-03-16T05:37:54.646Z,74.36
2019-03-16T05:38:54.608Z,74.26
2019-03-16T05:39:54.601Z,74.15
2019-03-16T05:40:54.589Z,74.15
2019-03-16T05:41:54.577Z,74.15
2019-03-16T05:42:54.604Z,74.15
2019-03-16T05:43:54.556Z,74.36
2019-03-16T05:44:54.545Z,73.95
2019-03-16T05:45:54.533Z,74.46
2019-03-16T05:46:54.523Z,74.36
2019-03-16T05:47:54.514Z,74.15
2019-03-16T05:48:54.524Z,74.15
2019-03-16T05:49:54.490Z,74.05
2019-03-16T05:50:57.382Z,74.15
2019-03-16T05:51:54.471Z,74.26
2019-03-16T05:52:54.460Z,74.15
2019-03-16T05:53:54.485Z,74.36
2019-03-16T05:54:54.440Z,74.15
2019-03-16T05:55:54.427Z,73.85
2019-03-16T05:56:54.416Z,73.60
2019-03-16T05:57:54.406Z,73.81
2019-03-16T05:58:54.395Z,73.81
2019-03-16T05:59:54.419Z,73.81
2019-03-16T06:00:54.373Z,73.81
2019-03-16T06:01:54.363Z,73.39
2019-03-16T06:02:54.352Z,72.78
2019-03-16T06:03:54.341Z,73.29
2019-03-16T06:04:54.367Z,73.02
2019-03-16T06:05:54.319Z,72.99
2019-03-16T06:06:54.309Z,72.78
2019-03-16T06:07:54.297Z,72.99
2019-03-16T06:08:54.289Z,73.09
2019-03-16T06:09:54.276Z,73.29
2019-03-16T06:10:54.290Z,73.19
2019-03-16T06:11:54.257Z,73.09
2019-03-16T06:12:54.246Z,73.29
2019-03-16T06:13:54.235Z,73.29
2019-03-16T06:14:54.224Z,73.19
2019-03-16T06:15:54.252Z,72.99
2019-03-16T06:16:54.202Z,73.05
2019-03-16T06:17:54.194Z,72.57
2019-03-16T06:18:54.182Z,72.99
2019-03-16T06:19:54.170Z,72.54
2019-03-16T06:20:54.159Z,72.85
2019-03-16T06:21:54.173Z,71.85
2019-03-16T06:22:54.134Z,71.51
2019-03-16T06:23:54.129Z,72.64
2019-03-16T06:24:54.115Z,72.54
2019-03-16T06:25:54.105Z,72.85
2019-03-16T06:26:54.134Z,71.81
2019-03-16T06:27:54.087Z,72.33
2019-03-16T06:28:54.072Z,72.23
2019-03-16T06:29:54.062Z,72.61
2019-03-16T06:30:54.051Z,72.19
2019-03-16T06:31:54.040Z,72.02
2019-03-16T06:32:54.052Z,72.33
2019-03-16T06:33:54.016Z,71.92
2019-03-16T06:34:54.005Z,72.30
2019-03-16T06:35:53.993Z,72.19
2019-03-16T06:36:53.982Z,72.40
2019-03-16T06:37:54.009Z,72.50
2019-03-16T06:38:53.960Z,72.30
2019-03-16T06:39:53.950Z,72.33
2019-03-16T06:40:53.944Z,72.19
2019-03-16T06:41:53.927Z,72.30
2019-03-16T06:42:53.915Z,72.30
2019-03-16T06:43:53.928Z,71.78
2019-03-16T06:44:53.896Z,71.78
2019-03-16T06:45:53.882Z,71.68
2019-03-16T06:46:53.875Z,71.34
2019-03-16T06:47:54.893Z,71.68
2019-03-16T06:48:53.888Z,71.99
2019-03-16T06:49:53.839Z,71.78
2019-03-16T06:50:53.828Z,71.03
2019-03-16T06:51:53.816Z,71.23
2019-03-16T06:52:53.808Z,70.82
2019-03-16T06:53:53.795Z,70.82
2019-03-16T06:54:53.807Z,70.92
2019-03-16T06:55:53.771Z,70.72
2019-03-16T06:56:53.762Z,70.72
2019-03-16T06:57:53.751Z,70.41
2019-03-16T06:58:53.740Z,70.41
2019-03-16T06:59:53.768Z,70.48
2019-03-16T07:00:53.717Z,70.79
2019-03-16T07:01:53.707Z,70.28
2019-03-16T07:02:53.695Z,70.28
2019-03-16T07:03:53.693Z,69.96
2019-03-16T07:04:53.673Z,69.96
2019-03-16T07:05:53.690Z,69.73
2019-03-16T07:06:53.651Z,69.96
2019-03-16T07:07:53.641Z,70.17
2019-03-16T07:08:53.631Z,69.76
2019-03-16T07:09:53.617Z,69.65
2019-03-16T07:10:53.646Z,69.65
2019-03-16T07:11:53.597Z,69.83
2019-03-16T07:12:53.591Z,69.62
2019-03-16T07:13:53.576Z,69.83
2019-03-16T07:14:53.569Z,69.21
2019-03-16T07:15:53.557Z,69.42
2019-03-16T07:17:01.950Z,69.73
2019-03-16T07:17:54.534Z,69.55
2019-03-16T07:18:58.858Z,69.52
2019-03-16T07:19:54.510Z,69.52
2019-03-16T07:20:53.502Z,69.31
2019-03-16T07:21:53.530Z,69.52
2019-03-16T07:22:53.478Z,69.52
2019-03-16T07:23:53.469Z,69.21
2019-03-16T07:24:53.462Z,69.11
2019-03-16T07:25:53.445Z,69.52
2019-03-16T07:26:53.440Z,69.21
2019-03-16T07:27:53.452Z,69.11
2019-03-16T07:28:53.415Z,69.07
2019-03-16T07:29:53.403Z,68.80
2019-03-16T07:30:53.395Z,69.18
2019-03-16T07:31:53.385Z,68.66
2019-03-16T07:32:53.408Z,69.49
2019-03-16T07:33:53.362Z,69.42
2019-03-16T07:34:53.350Z,69.49
2019-03-16T07:35:53.338Z,69.49
2019-03-16T07:36:53.326Z,68.66
2019-03-16T07:37:53.317Z,68.46
2019-03-16T07:38:53.332Z,68.77
2019-03-16T07:39:53.295Z,68.35
2019-03-16T07:40:53.302Z,68.46
2019-03-16T07:41:53.273Z,68.77
2019-03-16T07:42:53.264Z,68.15
2019-03-16T07:43:53.292Z,68.32
2019-03-16T07:44:53.245Z,68.84
2019-03-16T07:45:53.239Z,68.43
2019-03-16T07:46:53.221Z,68.32
2019-03-16T07:47:53.209Z,68.02
2019-03-16T07:48:53.199Z,68.53
2019-03-16T07:49:53.213Z,68.32
2019-03-16T07:50:53.182Z,68.84
2019-03-16T07:51:53.172Z,68.22
2019-03-16T07:52:53.156Z,68.74
2019-03-16T07:53:53.147Z,68.94
2019-03-16T07:54:53.177Z,68.94
2019-03-16T07:55:53.128Z,68.19
2019-03-16T07:56:53.114Z,68.63
2019-03-16T07:57:53.104Z,67.60
2019-03-16T07:58:53.090Z,68.02
2019-03-16T07:59:53.080Z,68.32
2019-03-16T08:00:53.095Z,68.22
2019-03-16T08:01:53.060Z,68.29
2019-03-16T08:02:53.048Z,67.81
2019-03-16T08:03:53.038Z,67.47
2019-03-16T08:04:53.028Z,67.68
2019-03-16T08:05:53.050Z,67.78
2019-03-16T08:06:53.008Z,67.36
2019-03-16T08:07:52.997Z,67.50
2019-03-16T08:08:52.986Z,67.40
2019-03-16T08:09:52.972Z,68.29
2019-03-16T08:10:52.960Z,68.08
2019-03-16T08:11:53.313Z,67.47
2019-03-16T08:12:52.941Z,67.68
2019-03-16T08:13:52.926Z,67.47
2019-03-16T08:14:52.915Z,67.36
2019-03-16T08:15:52.905Z,66.93
2019-03-16T08:16:52.932Z,66.41
2019-03-16T08:17:52.883Z,66.93
2019-03-16T08:18:52.914Z,66.93
2019-03-16T08:19:52.857Z,67.03
2019-03-16T08:20:52.847Z,66.85
2019-03-16T08:21:52.837Z,66.64
2019-03-16T08:22:52.850Z,66.51
2019-03-16T08:23:53.890Z,66.75
2019-03-16T08:24:52.803Z,66.82
2019-03-16T08:25:52.812Z,66.20
2019-03-16T08:26:52.779Z,66.20
2019-03-16T08:27:54.578Z,65.38
2019-03-16T08:28:52.759Z,65.48
2019-03-16T08:29:52.749Z,66.61
2019-03-16T08:30:52.738Z,66.44
2019-03-16T08:31:52.727Z,65.92
2019-03-16T08:32:52.714Z,66.61
2019-03-16T08:33:52.727Z,65.52
2019-03-16T08:34:52.691Z,65.92
2019-03-16T08:35:52.686Z,65.92
2019-03-16T08:36:52.669Z,66.34
2019-03-16T08:37:52.659Z,66.24
2019-03-16T08:38:52.683Z,66.34
2019-03-16T08:39:52.636Z,65.80
2019-03-16T08:40:52.625Z,66.03
2019-03-16T08:41:52.616Z,65.69
2019-03-16T08:42:52.606Z,65.08
2019-03-16T08:43:52.592Z,65.35
2019-03-16T08:44:52.607Z,65.05
2019-03-16T08:45:52.570Z,65.38
2019-03-16T08:46:52.559Z,64.66
2019-03-16T08:47:52.555Z,64.97
2019-03-16T08:48:52.536Z,64.87
2019-03-16T08:49:52.554Z,64.56
2019-03-16T08:50:52.517Z,64.63
2019-03-16T08:51:52.504Z,64.56
2019-03-16T08:52:53.774Z,63.81
2019-03-16T08:53:52.482Z,63.20
2019-03-16T08:54:52.506Z,63.40
2019-03-16T08:55:52.457Z,63.09
2019-03-16T08:56:52.448Z,63.29
2019-03-16T08:57:52.437Z,63.17
2019-03-16T08:58:52.428Z,63.29
2019-03-16T08:59:52.413Z,63.06
2019-03-16T09:00:52.427Z,63.47
2019-03-16T09:01:52.392Z,63.44
2019-03-16T09:02:52.386Z,63.34
2019-03-16T09:03:52.371Z,63.47
2019-03-16T09:04:52.359Z,63.17
2019-03-16T09:05:52.383Z,63.37
2019-03-16T09:06:53.043Z,63.57
2019-03-16T09:07:52.327Z,63.37
2019-03-16T09:08:52.317Z,63.17
2019-03-16T09:09:52.307Z,63.37
2019-03-16T09:10:52.294Z,63.37
2019-03-16T09:11:52.308Z,62.96
2019-03-16T09:12:55.332Z,62.85
2019-03-16T09:13:52.263Z,63.13
2019-03-16T09:14:52.251Z,63.34
2019-03-16T09:15:52.241Z,63.13
2019-03-16T09:16:52.264Z,62.73
2019-03-16T09:17:52.217Z,62.73
2019-03-16T09:18:52.207Z,62.93
2019-03-16T09:19:52.198Z,62.80
2019-03-16T09:20:52.189Z,62.70
2019-03-16T09:21:52.176Z,62.29
2019-03-16T09:22:52.193Z,61.98
2019-03-16T09:23:52.156Z,62.08
2019-03-16T09:24:52.141Z,61.46
2019-03-16T09:25:52.133Z,61.98
2019-03-16T09:26:52.122Z,61.57
2019-03-16T09:27:52.145Z,61.64
2019-03-16T09:28:59.993Z,61.67
2019-03-16T09:29:53.087Z,61.67
2019-03-16T09:30:52.075Z,60.95
2019-03-16T09:31:52.065Z,60.64
2019-03-16T09:32:52.057Z,61.57
2019-03-16T09:33:52.067Z,60.95
2019-03-16T09:34:52.031Z,61.26
2019-03-16T09:35:52.020Z,61.67
2019-03-16T09:36:52.011Z,61.77
2019-03-16T09:37:51.997Z,60.98
2019-03-16T09:38:52.023Z,61.80
2019-03-16T09:39:51.977Z,61.18
2019-03-16T09:40:51.965Z,61.60
2019-03-16T09:41:51.953Z,61.49
2019-03-16T09:42:51.943Z,61.16
2019-03-16T09:43:51.933Z,60.85
2019-03-16T09:44:51.946Z,60.54
2019-03-16T09:45:51.909Z,61.05
2019-03-16T09:46:51.927Z,61.23
2019-03-16T09:47:51.888Z,60.92
2019-03-16T09:48:51.877Z,60.21
2019-03-16T09:49:51.918Z,60.61
2019-03-16T09:50:51.859Z,60.61
2019-03-16T09:51:51.848Z,60.75
2019-03-16T09:52:51.833Z,61.05
2019-03-16T09:53:51.820Z,60.61
2019-03-16T09:54:51.810Z,60.51
2019-03-16T09:55:51.824Z,60.31
2019-03-16T09:57:01.054Z,59.80
2019-03-16T09:57:52.785Z,59.80
2019-03-16T09:58:51.765Z,59.89
2019-03-16T09:59:51.756Z,60.61
2019-03-16T10:00:51.779Z,59.69
2019-03-16T10:01:51.734Z,59.80
2019-03-16T10:02:51.721Z,59.48
2019-03-16T10:03:51.711Z,59.66
2019-03-16T10:04:51.704Z,59.25
2019-03-16T10:05:51.690Z,58.44
2019-03-16T10:06:51.702Z,59.25
2019-03-16T10:07:51.668Z,59.28
2019-03-16T10:08:51.658Z,59.56
2019-03-16T10:09:51.648Z,59.43
2019-03-16T10:10:51.633Z,58.40
2019-03-16T10:13:00.392Z,58.03
2019-03-16T10:14:00.381Z,58.46
2019-03-16T10:15:00.393Z,59.25
2019-03-16T10:16:00.361Z,59.89
2019-03-16T10:17:00.386Z,59.18
2019-03-16T10:18:00.336Z,59.36
2019-03-16T10:19:00.330Z,59.46
2019-03-16T10:20:00.370Z,59.56
2019-03-16T10:21:00.309Z,59.46
2019-03-16T10:22:00.296Z,59.97
2019-03-16T10:23:00.310Z,58.44
2019-03-16T10:24:00.282Z,58.74
2019-03-16T10:25:00.397Z,58.97
2019-03-16T10:26:00.253Z,57.61
2019-03-16T10:27:00.244Z,58.95
2019-03-16T10:28:00.268Z,58.87
2019-03-16T10:29:00.220Z,58.44
2019-03-16T10:30:00.537Z,58.64
2019-03-16T10:31:00.202Z,58.44
2019-03-16T10:32:00.193Z,58.03
2019-03-16T10:33:00.177Z,58.33
2019-03-16T10:34:00.194Z,58.03
2019-03-16T10:35:00.462Z,57.82
2019-03-16T10:36:00.150Z,58.03
2019-03-16T10:37:00.136Z,57.31
2019-03-16T10:38:00.124Z,57.61
2019-03-16T10:39:00.156Z,57.31
2019-03-16T10:40:00.104Z,57.71
2019-03-16T10:41:00.109Z,57.13
2019-03-16T10:42:00.087Z,58.26
2019-03-16T10:43:00.073Z,57.64
2019-03-16T10:44:00.062Z,57.51
2019-03-16T10:45:00.075Z,57.95
2019-03-16T10:46:00.041Z,58.15
2019-03-16T10:47:00.032Z,58.36
2019-03-16T10:48:00.020Z,58.97
2019-03-16T10:49:00.009Z,58.46
2019-03-16T10:50:00.023Z,58.33
2019-03-16T10:50:59.987Z,58.10
2019-03-16T10:51:59.995Z,57.59
2019-03-16T10:52:59.966Z,57.18
2019-03-16T10:53:59.956Z,57.89
2019-03-16T10:54:59.981Z,57.31
2019-03-16T10:55:59.934Z,57.61
2019-03-16T10:56:59.926Z,57.31
2019-03-16T10:57:59.914Z,57.51
2019-03-16T10:58:59.904Z,57.10
2019-03-16T10:59:59.892Z,57.61
2019-03-16T11:00:59.915Z,57.07
2019-03-16T11:01:59.875Z,57.61
2019-03-16T11:02:59.863Z,57.71
2019-03-16T11:03:59.849Z,57.71
2019-03-16T11:04:59.860Z,58.00
2019-03-16T11:05:59.865Z,58.03
2019-03-16T11:06:59.886Z,58.84
2019-03-16T11:07:59.805Z,58.56
2019-03-16T11:08:59.795Z,59.08
2019-03-16T11:09:59.784Z,59.38
2019-03-16T11:10:59.772Z,60.21
2019-03-16T11:11:59.796Z,59.69
2019-03-16T11:12:59.752Z,59.80
2019-03-16T11:13:59.741Z,60.00
2019-03-16T11:14:59.731Z,58.87
2019-03-16T11:15:59.720Z,59.80
2019-03-16T11:16:59.735Z,59.52
2019-03-16T11:17:59.705Z,58.59
2019-03-16T11:18:59.688Z,58.49
2019-03-16T11:19:59.681Z,58.39
2019-03-16T11:20:59.668Z,59.03
2019-03-16T11:21:59.700Z,58.92
2019-03-16T11:22:59.647Z,59.75
2019-03-16T11:23:59.638Z,60.36
2019-03-16T11:24:59.626Z,60.80
2019-03-16T11:25:59.614Z,61.11
2019-03-16T11:27:06.738Z,61.00
2019-03-16T11:27:59.634Z,61.65
2019-03-16T11:29:08.381Z,62.68
2019-03-16T11:30:00.573Z,62.81
2019-03-16T11:30:59.560Z,63.02
2019-03-16T11:31:59.548Z,63.02
2019-03-16T11:32:59.575Z,63.02
2019-03-16T11:33:59.529Z,63.12
2019-03-16T11:34:59.518Z,63.46
2019-03-16T11:35:59.505Z,62.92
2019-03-16T11:36:59.497Z,63.84
2019-03-16T11:37:59.486Z,63.35
2019-03-16T11:38:59.498Z,65.48
2019-03-16T11:39:59.462Z,63.74
2019-03-16T11:40:59.455Z,63.12
2019-03-16T11:41:59.440Z,63.74
2019-03-16T11:42:59.429Z,63.56
2019-03-16T11:43:59.446Z,63.15
2019-03-16T11:44:59.409Z,63.76
2019-03-16T11:45:59.399Z,63.76
2019-03-16T11:46:59.390Z,64.90
2019-03-16T11:47:59.377Z,64.18
2019-03-16T11:48:59.400Z,65.52
2019-03-16T11:49:59.374Z,65.00
2019-03-16T11:50:59.350Z,65.31
2019-03-16T11:51:59.333Z,65.52
2019-03-16T11:52:59.324Z,65.20
2019-03-16T11:53:59.314Z,65.52
2019-03-16T11:54:59.325Z,66.34
2019-03-16T11:55:59.292Z,67.30
2019-03-16T11:56:59.280Z,67.71
2019-03-16T11:57:59.270Z,69.35
2019-03-16T11:58:59.260Z,69.76
2019-03-16T11:59:59.287Z,70.21
2019-03-16T12:00:59.290Z,70.62
2019-03-16T12:02:05.276Z,71.75
2019-03-16T12:03:00.214Z,72.30
2019-03-16T12:03:59.207Z,73.13
2019-03-16T12:04:59.193Z,72.61
2019-03-16T12:05:59.210Z,73.95
2019-03-16T12:06:59.187Z,74.26
2019-03-16T12:07:59.179Z,74.77
2019-03-16T12:08:59.152Z,74.67
2019-03-16T12:09:59.140Z,75.29
2019-03-16T12:10:59.156Z,76.01
2019-03-16T12:11:59.117Z,75.81
2019-03-16T12:12:59.106Z,75.81
2019-03-16T12:13:59.099Z,76.21
2019-03-16T12:14:59.085Z,76.01
2019-03-16T12:15:59.127Z,77.04
2019-03-16T12:16:59.064Z,77.45
2019-03-16T12:17:59.065Z,77.76
2019-03-16T12:18:59.042Z,78.00
2019-03-16T12:19:59.029Z,77.80
2019-03-16T12:20:59.018Z,78.11
2019-03-16T12:21:59.035Z,79.14
2019-03-16T12:22:58.999Z,79.44
2019-03-16T12:23:58.985Z,79.44
2019-03-16T12:24:58.975Z,79.86
2019-03-16T12:25:58.965Z,79.65
2019-03-16T12:26:58.995Z,79.72
2019-03-16T12:27:58.944Z,80.79
2019-03-16T12:28:58.934Z,81.09
2019-03-16T12:29:58.920Z,81.65
2019-03-16T12:30:58.914Z,82.78
2019-03-16T12:31:58.900Z,83.19
2019-03-16T12:32:58.916Z,82.98
2019-03-16T12:33:58.880Z,82.98
2019-03-16T12:34:58.871Z,84.36
2019-03-16T12:35:58.863Z,84.88
2019-03-16T12:36:58.848Z,85.46
2019-03-16T12:37:58.871Z,84.47
2019-03-16T12:38:58.827Z,84.57
2019-03-16T12:39:58.813Z,84.78
2019-03-16T12:40:58.803Z,85.60
2019-03-16T12:41:58.791Z,85.81
2019-03-16T12:42:58.780Z,85.50
2019-03-16T12:43:58.796Z,85.19
2019-03-16T12:44:58.765Z,85.09
2019-03-16T12:45:58.754Z,86.53
2019-03-16T12:46:58.737Z,85.39
2019-03-16T12:47:58.732Z,84.67
2019-03-16T12:48:58.756Z,85.33
2019-03-16T12:49:58.708Z,84.81
2019-03-16T12:50:58.697Z,84.51
2019-03-16T12:51:58.685Z,84.41
2019-03-16T12:52:58.675Z,84.92
2019-03-16T12:53:58.670Z,84.51